createdAt,value
2022-10-20T00:00:25.252Z,7.80
2022-10-20T00:01:25.531Z,7.80
2022-10-20T00:02:25.880Z,7.80
2022-10-20T00:03:26.099Z,7.81
2022-10-20T00:04:26.400Z,7.78
2022-10-20T00:05:26.725Z,7.70
2022-10-20T00:06:27.026Z,7.69
2022-10-20T00:07:34.345Z,7.70
2022-10-20T00:08:27.592Z,7.70
2022-10-20T00:09:27.871Z,7.70
2022-10-20T00:10:28.155Z,7.70
2022-10-20T00:11:28.515Z,7.66
2022-10-20T00:12:28.773Z,7.64
2022-10-20T00:13:29.096Z,7.66
2022-10-20T00:14:29.384Z,7.67
2022-10-20T00:15:29.674Z,7.67
2022-10-20T00:16:29.951Z,7.64
2022-10-20T00:17:30.242Z,7.62
2022-10-20T00:18:30.546Z,7.62
2022-10-20T00:19:30.832Z,7.58
2022-10-20T00:20:31.118Z,7.56
2022-10-20T00:21:31.399Z,7.56
2022-10-20T00:22:31.712Z,7.55
2022-10-20T00:23:32.016Z,7.53
2022-10-20T00:24:32.299Z,7.53
2022-10-20T00:25:32.587Z,7.56
2022-10-20T00:26:32.870Z,7.56
2022-10-20T00:27:33.148Z,7.55
2022-10-20T00:28:33.440Z,7.53
2022-10-20T00:29:33.716Z,7.55
2022-10-20T00:30:34.006Z,7.55
2022-10-20T00:31:34.297Z,7.56
2022-10-20T00:32:34.924Z,7.51
2022-10-20T00:33:34.861Z,7.51
2022-10-20T00:34:35.135Z,7.50
2022-10-20T00:35:35.442Z,7.48
2022-10-20T00:36:35.708Z,7.48
2022-10-20T00:37:35.996Z,7.46
2022-10-20T00:38:36.320Z,7.43
2022-10-20T00:39:36.704Z,7.43
2022-10-20T00:40:36.858Z,7.43
2022-10-20T00:41:37.180Z,7.40
2022-10-20T00:42:37.899Z,7.40
2022-10-20T00:43:37.789Z,7.37
2022-10-20T00:44:38.085Z,7.33
2022-10-20T00:45:38.372Z,7.32
2022-10-20T00:46:38.669Z,7.29
2022-10-20T00:47:39.026Z,7.32
2022-10-20T00:48:39.212Z,7.36
2022-10-20T00:49:39.489Z,7.36
2022-10-20T00:50:39.764Z,7.31
2022-10-20T00:51:40.043Z,7.32
2022-10-20T00:52:40.326Z,7.36
2022-10-20T00:53:40.629Z,7.33
2022-10-20T00:54:40.932Z,7.36
2022-10-20T00:55:41.215Z,7.36
2022-10-20T00:56:41.490Z,7.29
2022-10-20T00:57:41.772Z,7.26
2022-10-20T00:58:42.450Z,7.29
2022-10-20T00:59:42.289Z,7.26
2022-10-20T01:00:42.571Z,7.28
2022-10-20T01:01:42.985Z,7.28
2022-10-20T01:02:43.198Z,7.29
2022-10-20T01:03:43.499Z,7.26
2022-10-20T01:04:43.778Z,7.26
2022-10-20T01:05:44.140Z,7.26
2022-10-20T01:06:44.311Z,7.25
2022-10-20T01:07:44.593Z,7.22
2022-10-20T01:08:44.967Z,7.21
2022-10-20T01:09:45.139Z,7.22
2022-10-20T01:10:45.419Z,7.22
2022-10-20T01:11:45.712Z,7.19
2022-10-20T01:12:45.987Z,7.14
2022-10-20T01:13:46.297Z,7.13
2022-10-20T01:14:46.576Z,7.13
2022-10-20T01:15:46.860Z,7.11
2022-10-20T01:16:47.138Z,7.13
2022-10-20T01:17:47.428Z,7.18
2022-10-20T01:18:47.752Z,7.19
2022-10-20T01:19:48.045Z,7.19
2022-10-20T01:20:48.326Z,7.21
2022-10-20T01:21:48.643Z,7.22
2022-10-20T01:22:49.113Z,7.22
2022-10-20T01:23:49.288Z,7.19
2022-10-20T01:24:49.582Z,7.15
2022-10-20T01:25:49.887Z,7.18
2022-10-20T01:26:50.203Z,7.15
2022-10-20T01:27:50.482Z,7.18
2022-10-20T01:28:50.806Z,7.19
2022-10-20T01:29:51.093Z,7.15
2022-10-20T01:30:51.391Z,7.14
2022-10-20T01:31:51.682Z,7.11
2022-10-20T01:32:51.955Z,7.13
2022-10-20T01:33:52.250Z,7.05
2022-10-20T01:34:53.191Z,7.05
2022-10-20T01:35:52.800Z,7.05
2022-10-20T01:36:53.079Z,7.01
2022-10-20T01:37:53.565Z,7.00
2022-10-20T01:38:53.658Z,7.00
2022-10-20T01:39:53.938Z,6.97
2022-10-20T01:40:54.220Z,7.00
2022-10-20T01:41:54.499Z,7.00
2022-10-20T01:42:54.787Z,7.01
2022-10-20T01:43:55.083Z,7.03
2022-10-20T01:44:55.375Z,7.03
2022-10-20T01:45:55.850Z,7.00
2022-10-20T01:46:55.916Z,6.96
2022-10-20T01:47:56.228Z,6.92
2022-10-20T01:48:56.517Z,6.90
2022-10-20T01:49:56.804Z,6.92
2022-10-20T01:50:57.090Z,6.89
2022-10-20T01:51:57.399Z,6.90
2022-10-20T01:52:57.676Z,6.93
2022-10-20T01:53:57.975Z,6.92
2022-10-20T01:54:58.254Z,6.92
2022-10-20T01:55:58.541Z,6.92
2022-10-20T01:56:58.831Z,6.90
2022-10-20T01:57:59.116Z,6.92
2022-10-20T01:58:59.422Z,6.89
2022-10-20T01:59:59.703Z,6.87
2022-10-20T02:00:59.998Z,6.89
2022-10-20T02:02:00.281Z,6.86
2022-10-20T02:03:00.574Z,6.83
2022-10-20T02:04:00.872Z,6.85
2022-10-20T02:05:01.153Z,6.87
2022-10-20T02:06:01.613Z,6.86
2022-10-20T02:07:01.790Z,6.87
2022-10-20T02:08:02.079Z,6.87
2022-10-20T02:09:02.417Z,6.90
2022-10-20T02:10:02.699Z,6.89
2022-10-20T02:11:02.987Z,6.89
2022-10-20T02:12:03.275Z,6.83
2022-10-20T02:13:03.568Z,6.80
2022-10-20T02:14:03.869Z,6.82
2022-10-20T02:15:04.165Z,6.83
2022-10-20T02:16:04.451Z,6.80
2022-10-20T02:17:04.738Z,6.78
2022-10-20T02:18:05.028Z,6.82
2022-10-20T02:19:05.341Z,6.80
2022-10-20T02:20:05.625Z,6.78
2022-10-20T02:21:05.918Z,6.75
2022-10-20T02:22:06.207Z,6.80
2022-10-20T02:23:06.494Z,6.80
2022-10-20T02:24:06.795Z,6.78
2022-10-20T02:25:07.086Z,6.75
2022-10-20T02:26:07.373Z,6.74
2022-10-20T02:27:07.658Z,6.71
2022-10-20T02:28:07.941Z,6.71
2022-10-20T02:29:08.243Z,6.68
2022-10-20T02:30:08.524Z,6.68
2022-10-20T02:31:08.806Z,6.68
2022-10-20T02:32:09.107Z,6.67
2022-10-20T02:33:09.397Z,6.65
2022-10-20T02:34:09.698Z,6.67
2022-10-20T02:35:09.983Z,6.65
2022-10-20T02:36:10.264Z,6.65
2022-10-20T02:37:10.613Z,6.62
2022-10-20T02:38:10.811Z,6.62
2022-10-20T02:39:11.118Z,6.60
2022-10-20T02:40:11.407Z,6.59
2022-10-20T02:41:11.700Z,6.57
2022-10-20T02:42:11.989Z,6.57
2022-10-20T02:43:12.283Z,6.59
2022-10-20T02:44:12.596Z,6.60
2022-10-20T02:45:12.891Z,6.57
2022-10-20T02:46:13.251Z,6.57
2022-10-20T02:47:13.438Z,6.59
2022-10-20T02:48:13.728Z,6.54
2022-10-20T02:49:14.051Z,6.53
2022-10-20T02:50:14.351Z,6.56
2022-10-20T02:51:14.638Z,6.60
2022-10-20T02:52:14.929Z,6.56
2022-10-20T02:53:15.224Z,6.57
2022-10-20T02:54:15.537Z,6.56
2022-10-20T02:55:15.899Z,6.56
2022-10-20T02:56:16.174Z,6.56
2022-10-20T02:57:16.452Z,6.52
2022-10-20T02:58:16.748Z,6.54
2022-10-20T02:59:17.056Z,6.54
2022-10-20T03:00:17.338Z,6.50
2022-10-20T03:01:17.650Z,6.49
2022-10-20T03:02:17.906Z,6.47
2022-10-20T03:03:18.207Z,6.49
2022-10-20T03:04:18.616Z,6.49
2022-10-20T03:05:18.776Z,6.44
2022-10-20T03:06:19.067Z,6.43
2022-10-20T03:07:19.355Z,6.44
2022-10-20T03:08:19.646Z,6.46
2022-10-20T03:09:19.945Z,6.44
2022-10-20T03:10:20.235Z,6.46
2022-10-20T03:11:20.522Z,6.43
2022-10-20T03:12:20.807Z,6.39
2022-10-20T03:13:21.129Z,6.39
2022-10-20T03:14:21.409Z,6.38
2022-10-20T03:15:21.699Z,6.38
2022-10-20T03:16:21.982Z,6.36
2022-10-20T03:17:22.272Z,6.35
2022-10-20T03:18:22.558Z,6.34
2022-10-20T03:19:22.866Z,6.32
2022-10-20T03:20:23.153Z,6.29
2022-10-20T03:21:23.441Z,6.34
2022-10-20T03:22:23.762Z,6.32
2022-10-20T03:23:24.048Z,6.32
2022-10-20T03:24:24.340Z,6.31
2022-10-20T03:25:24.633Z,6.29
2022-10-20T03:26:24.909Z,6.29
2022-10-20T03:27:25.218Z,6.28
2022-10-20T03:28:25.492Z,6.25
2022-10-20T03:29:25.805Z,6.25
2022-10-20T03:30:26.119Z,6.20
2022-10-20T03:31:26.407Z,6.17
2022-10-20T03:32:26.707Z,6.20
2022-10-20T03:33:27.006Z,6.22
2022-10-20T03:34:27.307Z,6.20
2022-10-20T03:35:27.588Z,6.22
2022-10-20T03:36:27.873Z,6.20
2022-10-20T03:37:28.166Z,6.19
2022-10-20T03:38:28.459Z,6.16
2022-10-20T03:39:28.766Z,6.16
2022-10-20T03:40:29.056Z,6.16
2022-10-20T03:41:29.356Z,6.17
2022-10-20T03:42:29.644Z,6.16
2022-10-20T03:43:29.933Z,6.17
2022-10-20T03:44:30.245Z,6.19
2022-10-20T03:45:30.540Z,6.20
2022-10-20T03:46:30.831Z,6.17
2022-10-20T03:47:31.121Z,6.17
2022-10-20T03:48:31.413Z,6.16
2022-10-20T03:49:31.734Z,6.17
2022-10-20T03:50:32.055Z,6.16
2022-10-20T03:51:32.349Z,6.16
2022-10-20T03:52:32.815Z,6.15
2022-10-20T03:53:32.948Z,6.13
2022-10-20T03:54:33.261Z,6.15
2022-10-20T03:55:33.552Z,6.17
2022-10-20T03:56:33.845Z,6.16
2022-10-20T03:57:34.578Z,6.13
2022-10-20T03:58:34.419Z,6.16
2022-10-20T03:59:34.741Z,6.17
2022-10-20T04:00:35.036Z,6.16
2022-10-20T04:01:35.451Z,6.15
2022-10-20T04:02:35.970Z,6.12
2022-10-20T04:03:35.980Z,6.12
2022-10-20T04:04:36.329Z,6.10
2022-10-20T04:05:36.560Z,6.09
2022-10-20T04:06:36.846Z,6.07
2022-10-20T04:07:37.979Z,6.09
2022-10-20T04:08:37.406Z,6.09
2022-10-20T04:09:37.737Z,6.09
2022-10-20T04:10:38.021Z,6.12
2022-10-20T04:11:38.315Z,6.10
2022-10-20T04:12:39.059Z,6.12
2022-10-20T04:13:38.875Z,6.12
2022-10-20T04:14:39.173Z,6.13
2022-10-20T04:15:39.463Z,6.12
2022-10-20T04:16:39.751Z,6.13
2022-10-20T04:18:40.391Z,6.10
2022-10-20T04:19:40.710Z,6.10
2022-10-20T04:20:43.649Z,6.09
2022-10-20T04:21:41.332Z,6.12
2022-10-20T04:22:41.623Z,6.15
2022-10-20T04:23:41.911Z,6.13
2022-10-20T04:24:42.212Z,6.10
2022-10-20T04:25:42.513Z,6.07
2022-10-20T04:26:42.820Z,6.09
2022-10-20T04:27:43.193Z,6.06
2022-10-20T04:28:43.389Z,6.06
2022-10-20T04:29:43.691Z,6.06
2022-10-20T04:30:43.982Z,6.06
2022-10-20T04:31:46.790Z,6.02
2022-10-20T04:32:44.539Z,6.06
2022-10-20T04:33:44.840Z,6.05
2022-10-20T04:34:45.142Z,6.06
2022-10-20T04:35:45.492Z,6.07
2022-10-20T04:36:45.789Z,6.06
2022-10-20T04:37:46.099Z,6.02
2022-10-20T04:38:46.402Z,5.99
2022-10-20T04:39:46.733Z,5.99
2022-10-20T04:40:47.030Z,5.99
2022-10-20T04:41:47.341Z,5.99
2022-10-20T04:42:47.639Z,5.97
2022-10-20T04:43:47.933Z,5.98
2022-10-20T04:44:48.296Z,5.99
2022-10-20T04:45:48.496Z,5.99
2022-10-20T04:46:48.810Z,5.98
2022-10-20T04:47:49.106Z,5.99
2022-10-20T04:48:49.411Z,5.98
2022-10-20T04:49:49.747Z,5.97
2022-10-20T04:50:50.046Z,5.92
2022-10-20T04:51:50.368Z,5.92
2022-10-20T04:52:50.664Z,5.92
2022-10-20T04:53:50.967Z,5.94
2022-10-20T04:54:51.279Z,5.97
2022-10-20T04:55:51.583Z,5.97
2022-10-20T04:56:51.871Z,5.98
2022-10-20T04:57:52.163Z,5.99
2022-10-20T04:58:52.454Z,6.01
2022-10-20T04:59:52.755Z,5.97
2022-10-20T05:00:53.053Z,5.95
2022-10-20T05:01:53.388Z,5.94
2022-10-20T05:02:53.689Z,5.91
2022-10-20T05:03:53.989Z,5.90
2022-10-20T05:04:54.282Z,5.87
2022-10-20T05:05:54.588Z,5.84
2022-10-20T05:06:54.865Z,5.88
2022-10-20T05:07:55.189Z,5.88
2022-10-20T05:08:55.480Z,5.87
2022-10-20T05:09:55.722Z,5.84
2022-10-20T05:10:56.005Z,5.83
2022-10-20T05:11:56.331Z,5.80
2022-10-20T05:12:56.650Z,5.81
2022-10-20T05:13:56.940Z,5.80
2022-10-20T05:14:57.345Z,5.81
2022-10-20T05:15:57.561Z,5.80
2022-10-20T05:16:57.896Z,5.76
2022-10-20T05:17:58.238Z,5.74
2022-10-20T05:18:58.569Z,5.79
2022-10-20T05:19:58.904Z,5.79
2022-10-20T05:21:14.521Z,5.77
2022-10-20T05:22:00.476Z,5.74
2022-10-20T05:22:59.806Z,5.74
2022-10-20T05:24:00.129Z,5.74
2022-10-20T05:25:12.790Z,5.74
2022-10-20T05:26:01.728Z,5.77
2022-10-20T05:27:00.975Z,5.74
2022-10-20T05:28:01.278Z,5.74
2022-10-20T05:29:01.584Z,5.80
2022-10-20T05:30:01.904Z,5.76
2022-10-20T05:31:02.202Z,5.77
2022-10-20T05:32:02.509Z,5.77
2022-10-20T05:33:02.805Z,5.79
2022-10-20T05:34:03.113Z,5.80
2022-10-20T05:35:03.443Z,5.80
2022-10-20T05:36:03.742Z,5.76
2022-10-20T05:37:04.041Z,5.77
2022-10-20T05:38:04.332Z,5.79
2022-10-20T05:39:04.641Z,5.76
2022-10-20T05:40:04.969Z,5.79
2022-10-20T05:41:05.275Z,5.83
2022-10-20T05:42:05.570Z,5.83
2022-10-20T05:43:05.886Z,5.81
2022-10-20T05:44:06.195Z,5.83
2022-10-20T05:45:06.509Z,5.83
2022-10-20T05:46:06.841Z,6.07
2022-10-20T05:47:07.140Z,6.09
2022-10-20T05:48:07.441Z,6.07
2022-10-20T05:49:07.739Z,6.09
2022-10-20T05:50:08.056Z,6.13
2022-10-20T05:51:10.678Z,6.15
2022-10-20T05:52:09.713Z,6.16
2022-10-20T05:53:08.992Z,6.16
2022-10-20T05:54:09.293Z,6.12
2022-10-20T05:55:09.609Z,6.13
2022-10-20T05:56:09.896Z,6.16
2022-10-20T05:57:10.187Z,6.22
2022-10-20T05:58:10.476Z,6.26
2022-10-20T05:59:10.773Z,6.28
2022-10-20T06:00:11.099Z,6.31
2022-10-20T06:01:11.393Z,6.29
2022-10-20T06:02:11.697Z,6.31
2022-10-20T06:03:13.955Z,6.28
2022-10-20T06:04:13.352Z,6.32
2022-10-20T06:05:12.656Z,6.32
2022-10-20T06:06:12.954Z,6.34
2022-10-20T06:07:13.256Z,6.22
2022-10-20T06:08:13.614Z,6.15
2022-10-20T06:09:20.988Z,6.15
2022-10-20T06:10:14.121Z,6.13
2022-10-20T06:11:16.451Z,6.10
2022-10-20T06:12:14.748Z,6.09
2022-10-20T06:13:15.040Z,6.10
2022-10-20T06:14:15.329Z,6.12
2022-10-20T06:15:15.648Z,6.10
2022-10-20T06:16:15.944Z,6.05
2022-10-20T06:17:16.229Z,6.06
2022-10-20T06:18:16.526Z,6.02
2022-10-20T06:19:16.899Z,5.99
2022-10-20T06:20:19.037Z,6.05
2022-10-20T06:21:17.318Z,6.07
2022-10-20T06:22:17.612Z,6.15
2022-10-20T06:23:17.924Z,6.16
2022-10-20T06:24:18.231Z,6.12
2022-10-20T06:25:18.543Z,6.12
2022-10-20T06:26:18.865Z,6.16
2022-10-20T06:27:19.152Z,6.17
2022-10-20T06:28:19.492Z,6.20
2022-10-20T06:29:19.781Z,6.22
2022-10-20T06:30:20.095Z,6.28
2022-10-20T06:31:20.435Z,6.43
2022-10-20T06:32:20.736Z,6.89
2022-10-20T06:33:21.044Z,7.50
2022-10-20T06:34:21.375Z,8.13
2022-10-20T06:35:21.649Z,8.36
2022-10-20T06:36:21.967Z,8.31
2022-10-20T06:37:22.598Z,8.20
2022-10-20T06:38:22.534Z,8.24
2022-10-20T06:39:22.852Z,8.46
2022-10-20T06:40:23.144Z,8.61
2022-10-20T06:41:23.447Z,8.38
2022-10-20T06:42:23.746Z,8.31
2022-10-20T06:43:24.021Z,8.72
2022-10-20T06:44:24.329Z,9.44
2022-10-20T06:45:24.622Z,9.99
2022-10-20T06:46:24.952Z,10.34
2022-10-20T06:47:25.238Z,10.59
2022-10-20T06:48:25.532Z,10.87
2022-10-20T06:49:25.809Z,10.97
2022-10-20T06:50:26.124Z,11.16
2022-10-20T06:51:26.406Z,11.31
2022-10-20T06:52:26.686Z,11.56
2022-10-20T06:53:26.958Z,11.74
2022-10-20T06:54:27.215Z,11.60
2022-10-20T06:55:27.478Z,11.55
2022-10-20T06:56:27.910Z,11.83
2022-10-20T06:57:28.047Z,12.05
2022-10-20T06:58:28.382Z,12.25
2022-10-20T06:59:28.618Z,12.29
2022-10-20T07:00:28.761Z,12.25
2022-10-20T07:01:29.113Z,11.99
2022-10-20T07:02:29.265Z,12.17
2022-10-20T07:03:29.523Z,12.33
2022-10-20T07:04:29.774Z,12.25
2022-10-20T07:05:30.052Z,12.37
2022-10-20T07:06:30.315Z,12.47
2022-10-20T07:07:30.603Z,12.55
2022-10-20T07:08:30.875Z,12.08
2022-10-20T07:09:31.115Z,12.28
2022-10-20T07:10:31.364Z,12.23
2022-10-20T07:11:31.622Z,12.33
2022-10-20T07:12:31.892Z,12.72
2022-10-20T07:13:32.121Z,12.54
2022-10-20T07:14:32.609Z,12.76
2022-10-20T07:15:32.681Z,13.02
2022-10-20T07:16:32.963Z,12.78
2022-10-20T07:17:33.199Z,12.75
2022-10-20T07:18:33.499Z,12.75
2022-10-20T07:19:33.722Z,12.72
2022-10-20T07:20:33.960Z,13.30
2022-10-20T07:21:36.451Z,13.75
2022-10-20T07:22:34.780Z,13.82
2022-10-20T07:23:34.619Z,13.62
2022-10-20T07:24:34.839Z,13.61
2022-10-20T07:25:35.121Z,13.68
2022-10-20T07:26:35.269Z,13.55
2022-10-20T07:27:35.533Z,13.16
2022-10-20T07:28:35.798Z,13.01
2022-10-20T07:29:36.086Z,13.70
2022-10-20T07:30:36.310Z,13.93
2022-10-20T07:31:36.561Z,13.57
2022-10-20T07:32:37.019Z,13.42
2022-10-20T07:33:37.017Z,13.42
2022-10-20T07:34:37.246Z,13.55
2022-10-20T07:35:37.468Z,13.80
2022-10-20T07:36:37.756Z,13.76
2022-10-20T07:37:38.340Z,13.95
2022-10-20T07:38:38.122Z,14.53
2022-10-20T07:39:38.234Z,15.15
2022-10-20T07:40:38.453Z,15.23
2022-10-20T07:41:38.680Z,15.41
2022-10-20T07:42:39.316Z,15.76
2022-10-20T07:43:39.093Z,15.96
2022-10-20T07:44:39.303Z,15.62
2022-10-20T07:45:39.530Z,15.50
2022-10-20T07:46:39.762Z,15.76
2022-10-20T07:47:42.157Z,16.03
2022-10-20T07:48:40.196Z,16.25
2022-10-20T07:49:44.691Z,15.90
2022-10-20T07:50:40.612Z,15.36
2022-10-20T07:51:40.812Z,15.60
2022-10-20T07:52:40.994Z,15.37
2022-10-20T07:53:41.217Z,15.39
2022-10-20T07:54:41.482Z,15.72
2022-10-20T07:55:41.596Z,16.24
2022-10-20T07:56:41.824Z,15.87
2022-10-20T07:57:42.028Z,15.96
2022-10-20T07:58:42.228Z,15.57
2022-10-20T07:59:42.418Z,15.84
2022-10-20T08:00:42.644Z,15.83
2022-10-20T08:01:42.907Z,15.51
2022-10-20T08:02:43.023Z,15.55
2022-10-20T08:03:43.276Z,16.02
2022-10-20T08:04:43.377Z,15.69
2022-10-20T08:05:43.561Z,15.69
2022-10-20T08:06:43.784Z,15.70
2022-10-20T08:07:43.979Z,15.92
2022-10-20T08:08:44.198Z,16.12
2022-10-20T08:10:44.597Z,15.83
2022-10-20T08:11:44.805Z,16.26
2022-10-20T08:12:44.995Z,15.80
2022-10-20T08:13:45.205Z,15.59
2022-10-20T08:14:45.425Z,15.17
2022-10-20T08:15:47.658Z,15.11
2022-10-20T08:16:48.374Z,15.43
2022-10-20T08:17:45.993Z,15.57
2022-10-20T08:18:48.096Z,15.54
2022-10-20T08:19:53.177Z,15.51
2022-10-20T08:20:46.565Z,15.18
2022-10-20T08:21:46.772Z,14.70
2022-10-20T08:22:46.962Z,14.53
2022-10-20T08:23:47.152Z,14.74
2022-10-20T08:24:47.341Z,14.99
2022-10-20T08:25:47.546Z,15.29
2022-10-20T08:26:47.765Z,15.41
2022-10-20T08:27:47.984Z,15.76
2022-10-20T08:28:48.151Z,15.78
2022-10-20T08:29:55.254Z,16.22
2022-10-20T08:30:49.532Z,16.36
2022-10-20T08:31:48.770Z,16.21
2022-10-20T08:32:48.833Z,15.92
2022-10-20T08:33:52.591Z,15.84
2022-10-20T08:34:49.205Z,15.59
2022-10-20T08:35:49.395Z,15.66
2022-10-20T08:36:49.583Z,15.27
2022-10-20T08:37:49.775Z,15.43
2022-10-20T08:38:49.956Z,15.83
2022-10-20T08:39:50.163Z,15.94
2022-10-20T08:40:50.338Z,15.66
2022-10-20T08:42:51.665Z,15.29
2022-10-20T08:43:50.859Z,15.08
2022-10-20T08:44:51.049Z,14.94
2022-10-20T08:45:51.235Z,14.86
2022-10-20T08:46:51.437Z,15.30
2022-10-20T08:47:51.607Z,15.84
2022-10-20T08:48:51.797Z,16.24
2022-10-20T08:49:51.985Z,16.80
2022-10-20T08:50:52.165Z,17.28
2022-10-20T08:51:52.359Z,16.80
2022-10-20T08:52:52.523Z,16.47
2022-10-20T08:53:52.697Z,16.18
2022-10-20T08:54:52.863Z,16.16
2022-10-20T08:55:53.044Z,16.24
2022-10-20T08:56:53.226Z,16.43
2022-10-20T08:57:53.403Z,16.29
2022-10-20T08:58:53.574Z,16.61
2022-10-20T08:59:53.746Z,16.49
2022-10-20T09:00:53.916Z,15.99
2022-10-20T09:01:54.286Z,15.78
2022-10-20T09:02:54.318Z,15.41
2022-10-20T09:03:54.498Z,15.45
2022-10-20T09:04:54.769Z,15.52
2022-10-20T09:05:54.818Z,15.69
2022-10-20T09:06:55.030Z,15.70
2022-10-20T09:07:55.205Z,15.59
2022-10-20T09:08:55.391Z,15.85
2022-10-20T09:09:55.557Z,16.05
2022-10-20T09:10:55.733Z,16.29
2022-10-20T09:11:55.995Z,16.82
2022-10-20T09:12:56.054Z,16.55
2022-10-20T09:13:56.234Z,16.62
2022-10-20T09:14:56.490Z,16.62
2022-10-20T09:15:56.537Z,16.32
2022-10-20T09:17:00.152Z,16.50
2022-10-20T09:17:56.914Z,16.22
2022-10-20T09:18:57.094Z,16.36
2022-10-20T09:19:57.272Z,16.28
2022-10-20T09:20:57.434Z,16.51
2022-10-20T09:21:57.615Z,16.86
2022-10-20T09:22:58.250Z,16.66
2022-10-20T09:23:57.943Z,16.36
2022-10-20T09:24:58.113Z,16.13
2022-10-20T09:25:58.334Z,16.37
2022-10-20T09:26:59.927Z,16.41
2022-10-20T09:27:58.649Z,16.18
2022-10-20T09:29:12.506Z,16.41
2022-10-20T09:29:59.955Z,16.41
2022-10-20T09:30:59.101Z,16.32
2022-10-20T09:32:03.770Z,16.12
2022-10-20T09:33:00.838Z,16.00
2022-10-20T09:33:59.611Z,16.61
2022-10-20T09:34:59.789Z,16.91
2022-10-20T09:35:59.975Z,16.92
2022-10-20T09:37:00.157Z,16.32
2022-10-20T09:38:00.448Z,16.09
2022-10-20T09:39:00.488Z,16.10
2022-10-20T09:40:00.670Z,16.28
2022-10-20T09:41:00.840Z,16.25
2022-10-20T09:43:01.119Z,15.91
2022-10-20T09:44:01.273Z,15.72
2022-10-20T09:45:01.449Z,15.72
2022-10-20T09:46:01.609Z,16.26
2022-10-20T09:47:01.783Z,16.89
2022-10-20T09:48:01.944Z,16.91
2022-10-20T09:49:02.141Z,16.84
2022-10-20T09:50:02.302Z,16.84
2022-10-20T09:51:02.499Z,17.24
2022-10-20T09:52:02.605Z,16.65
2022-10-20T09:53:02.748Z,16.55
2022-10-20T09:54:02.981Z,16.43
2022-10-20T09:55:03.016Z,16.79
2022-10-20T09:56:03.184Z,16.99
2022-10-20T09:57:03.390Z,17.46
2022-10-20T09:58:03.550Z,17.17
2022-10-20T09:59:03.692Z,17.30
2022-10-20T10:00:18.902Z,17.93
2022-10-20T10:01:04.979Z,17.95
2022-10-20T10:02:04.147Z,17.84
2022-10-20T10:03:04.298Z,17.47
2022-10-20T10:04:09.027Z,17.69
2022-10-20T10:05:05.566Z,17.71
2022-10-20T10:06:04.741Z,17.57
2022-10-20T10:07:04.911Z,17.59
2022-10-20T10:08:05.079Z,17.56
2022-10-20T10:09:05.359Z,17.79
2022-10-20T10:10:08.221Z,17.66
2022-10-20T10:11:05.489Z,18.34
2022-10-20T10:12:05.670Z,18.28
2022-10-20T10:14:05.933Z,17.80
2022-10-20T10:15:06.083Z,17.50
2022-10-20T10:16:06.267Z,17.41
2022-10-20T10:17:06.445Z,17.17
2022-10-20T10:18:06.594Z,17.27
2022-10-20T10:19:06.829Z,17.24
2022-10-20T10:20:06.912Z,16.99
2022-10-20T10:21:07.080Z,17.07
2022-10-20T10:22:07.251Z,17.57
2022-10-20T10:23:07.406Z,17.88
2022-10-20T10:24:07.595Z,17.41
2022-10-20T10:25:07.745Z,17.41
2022-10-20T10:26:07.902Z,17.31
2022-10-20T10:27:08.123Z,17.42
2022-10-20T10:28:08.159Z,18.27
2022-10-20T10:29:08.314Z,18.76
2022-10-20T10:30:08.483Z,19.11
2022-10-20T10:31:08.626Z,19.42
2022-10-20T10:32:08.955Z,18.81
2022-10-20T10:33:08.865Z,18.31
2022-10-20T10:34:09.028Z,17.80
2022-10-20T10:35:09.174Z,17.76
2022-10-20T10:36:09.326Z,18.26
2022-10-20T10:37:09.550Z,18.12
2022-10-20T10:38:09.591Z,18.55
2022-10-20T10:39:09.734Z,18.46
2022-10-20T10:40:09.877Z,18.52
2022-10-20T10:41:10.055Z,18.46
2022-10-20T10:42:10.237Z,18.51
2022-10-20T10:43:10.386Z,18.67
2022-10-20T10:44:10.540Z,18.09
2022-10-20T10:45:10.678Z,17.87
2022-10-20T10:46:10.824Z,18.31
2022-10-20T10:47:10.996Z,18.45
2022-10-20T10:48:11.160Z,18.63
2022-10-20T10:49:11.298Z,18.02
2022-10-20T10:50:12.342Z,17.68
2022-10-20T10:51:11.609Z,17.17
2022-10-20T10:52:11.786Z,17.10
2022-10-20T10:53:11.929Z,17.12
2022-10-20T10:54:12.259Z,17.37
2022-10-20T10:55:21.212Z,17.65
2022-10-20T10:56:13.318Z,17.90
2022-10-20T10:57:12.732Z,17.76
2022-10-20T10:59:12.822Z,16.95
2022-10-20T11:00:13.123Z,17.19
2022-10-20T11:01:13.280Z,17.63
2022-10-20T11:02:13.325Z,17.94
2022-10-20T11:03:13.486Z,18.03
2022-10-20T11:04:13.647Z,18.03
2022-10-20T11:05:13.801Z,17.78
2022-10-20T11:06:13.966Z,18.05
2022-10-20T11:07:14.160Z,18.71
2022-10-20T11:08:14.308Z,19.00
2022-10-20T11:09:14.472Z,19.44
2022-10-20T11:10:14.615Z,19.67
2022-10-20T11:11:14.770Z,20.10
2022-10-20T11:12:14.954Z,20.27
2022-10-20T11:13:15.085Z,20.42
2022-10-20T11:14:15.297Z,19.71
2022-10-20T11:15:15.348Z,19.57
2022-10-20T11:16:15.478Z,19.62
2022-10-20T11:17:15.642Z,19.48
2022-10-20T11:18:15.773Z,19.23
2022-10-20T11:19:15.907Z,18.73
2022-10-20T11:20:16.039Z,18.98
2022-10-20T11:21:16.173Z,18.79
2022-10-20T11:22:16.324Z,18.28
2022-10-20T11:23:16.455Z,18.36
2022-10-20T11:24:16.578Z,18.98
2022-10-20T11:25:16.719Z,19.72
2022-10-20T11:26:16.846Z,19.75
2022-10-20T11:27:16.992Z,19.97
2022-10-20T11:28:17.134Z,19.94
2022-10-20T11:29:17.258Z,20.34
2022-10-20T11:30:17.388Z,20.74
2022-10-20T11:31:17.532Z,20.96
2022-10-20T11:32:17.674Z,20.86
2022-10-20T11:33:17.803Z,20.64
2022-10-20T11:34:17.938Z,20.37
2022-10-20T11:35:18.073Z,19.85
2022-10-20T11:36:18.201Z,19.49
2022-10-20T11:37:18.333Z,19.82
2022-10-20T11:38:18.471Z,19.49
2022-10-20T11:39:18.627Z,19.38
2022-10-20T11:40:18.769Z,19.52
2022-10-20T11:41:18.891Z,19.97
2022-10-20T11:42:19.039Z,20.21
2022-10-20T11:43:19.168Z,19.99
2022-10-20T11:44:19.288Z,19.45
2022-10-20T11:45:19.419Z,19.71
2022-10-20T11:46:19.565Z,19.64
2022-10-20T11:47:19.706Z,20.10
2022-10-20T11:48:19.824Z,20.85
2022-10-20T11:49:19.963Z,20.85
2022-10-20T11:50:20.093Z,21.00
2022-10-20T11:51:20.221Z,20.93
2022-10-20T11:52:20.364Z,20.52
2022-10-20T11:53:20.495Z,20.32
2022-10-20T11:54:20.620Z,20.44
2022-10-20T11:55:20.743Z,20.29
2022-10-20T11:56:20.894Z,19.90
2022-10-20T11:57:21.052Z,19.62
2022-10-20T11:58:21.189Z,19.90
2022-10-20T11:59:21.314Z,19.92
2022-10-20T12:00:21.499Z,19.15
2022-10-20T12:01:21.521Z,18.70
2022-10-20T12:02:21.711Z,18.36
2022-10-20T12:03:21.905Z,18.28
2022-10-20T12:04:21.928Z,17.69
2022-10-20T12:05:22.068Z,17.86
2022-10-20T12:06:22.201Z,18.31
2022-10-20T12:07:22.371Z,18.33
2022-10-20T12:08:29.994Z,18.53
2022-10-20T12:10:35.717Z,17.63
2022-10-20T12:11:35.891Z,17.95
2022-10-20T12:12:36.339Z,18.19
2022-10-20T12:13:36.233Z,18.27
2022-10-20T12:14:36.436Z,18.43
2022-10-20T12:15:36.600Z,18.58
2022-10-20T12:16:36.769Z,18.66
2022-10-20T12:17:36.983Z,18.71
2022-10-20T12:18:37.156Z,18.76
2022-10-20T12:19:37.371Z,18.52
2022-10-20T12:20:37.556Z,18.21
2022-10-20T12:21:37.762Z,18.34
2022-10-20T12:22:38.200Z,18.55
2022-10-20T12:23:38.080Z,18.86
2022-10-20T12:24:38.277Z,18.67
2022-10-20T12:25:38.442Z,18.15
2022-10-20T12:26:42.441Z,17.94
2022-10-20T12:27:39.758Z,18.15
2022-10-20T12:29:39.152Z,18.08
2022-10-20T12:30:39.320Z,18.49
2022-10-20T12:31:39.496Z,18.82
2022-10-20T12:32:40.030Z,19.00
2022-10-20T12:33:39.821Z,18.94
2022-10-20T12:34:40.003Z,18.98
2022-10-20T12:35:40.184Z,19.22
2022-10-20T12:36:40.380Z,19.29
2022-10-20T12:37:43.443Z,19.63
2022-10-20T12:38:41.690Z,19.45
2022-10-20T12:39:40.863Z,19.49
2022-10-20T12:40:41.037Z,19.53
2022-10-20T12:41:41.204Z,19.38
2022-10-20T12:42:41.391Z,19.57
2022-10-20T12:43:41.573Z,19.53
2022-10-20T12:44:41.767Z,19.47
2022-10-20T12:45:42.002Z,19.30
2022-10-20T12:46:42.068Z,19.20
2022-10-20T12:47:42.255Z,19.11
2022-10-20T12:48:42.412Z,19.38
2022-10-20T12:49:42.583Z,19.44
2022-10-20T12:50:42.748Z,19.48
2022-10-20T12:51:42.928Z,19.96
2022-10-20T12:52:43.115Z,20.40
2022-10-20T12:53:43.283Z,20.22
2022-10-20T12:54:47.761Z,20.67
2022-10-20T12:55:44.585Z,20.93
2022-10-20T12:56:44.091Z,20.80
2022-10-20T12:57:43.941Z,20.24
2022-10-20T12:58:44.182Z,19.87
2022-10-20T12:59:44.283Z,19.94
2022-10-20T13:00:44.365Z,19.84
2022-10-20T13:01:44.584Z,19.85
2022-10-20T13:02:44.781Z,19.89
2022-10-20T13:03:44.951Z,19.23
2022-10-20T13:04:45.498Z,19.35
2022-10-20T13:05:45.472Z,19.29
2022-10-20T13:06:45.465Z,19.47
2022-10-20T13:07:45.873Z,19.38
2022-10-20T13:08:45.903Z,19.35
2022-10-20T13:09:45.955Z,19.67
2022-10-20T13:10:46.127Z,19.48
2022-10-20T13:11:46.311Z,19.87
2022-10-20T13:12:46.485Z,19.79
2022-10-20T13:13:46.660Z,19.37
2022-10-20T13:14:46.837Z,19.15
2022-10-20T13:15:47.015Z,19.23
2022-10-20T13:16:47.210Z,18.97